Time;durP1;ratioP1;P1;durP2;ratioP2;P2;SDS_P1;SDS_P2;PMS_P1;PMS_P2;Temp;Humidity;BMP_temperature;BMP_pressure;BME280_temperature;BME280_humidity;BME280_pressure;Samples;Min_cycle;Max_cycle;Signal;HPM_P1;HPM_P2
2022/08/27 00:00:46;;;;;;;7.40;3.40;;;;;;;23.72;41.55;99817.01;117368;1185;22911;-69
2022/08/27 00:03:13;;;;;;;12.70;4.00;;;;;;;23.71;41.51;99813.52;117078;1182;22958;-69
2022/08/27 00:05:40;;;;;;;7.00;3.20;;;;;;;23.69;41.58;99811.67;117069;1183;22640;-59
2022/08/27 00:08:08;;;;;;;12.80;3.70;;;;;;;23.66;41.60;99806.41;116997;1184;22911;-69
2022/08/27 00:10:35;;;;;;;9.80;3.30;;;;;;;23.62;41.42;99807.73;117109;1184;21882;-60
2022/08/27 00:13:02;;;;;;;9.50;4.10;;;;;;;23.61;41.53;99811.22;117280;1182;22933;-59
2022/08/27 00:15:29;;;;;;;10.80;3.80;;;;;;;23.61;41.50;99815.55;117314;1182;22916;-60
2022/08/27 00:17:56;;;;;;;12.70;3.40;;;;;;;23.60;41.47;99813.08;117338;1182;23554;-68
2022/08/27 00:20:24;;;;;;;9.70;3.40;;;;;;;23.59;41.57;99810.30;117282;1184;22977;-63
2022/08/27 00:22:52;;;;;;;8.20;3.40;;;;;;;23.58;41.35;99809.14;117392;1182;22932;-69
2022/08/27 00:25:19;;;;;;;13.10;5.00;;;;;;;23.57;41.46;99812.08;117325;1182;22928;-68
2022/08/27 00:27:46;;;;;;;8.70;3.20;;;;;;;23.55;41.60;99812.91;117299;1182;22089;-60
2022/08/27 00:30:16;;;;;;;9.50;3.50;;;;;;;23.54;41.36;99814.98;116966;1186;22948;-59
2022/08/27 00:32:43;;;;;;;7.30;3.60;;;;;;;23.53;41.41;99812.73;117108;1185;24734;-60
2022/08/27 00:35:12;;;;;;;15.00;3.20;;;;;;;23.51;41.38;99812.70;117350;1184;21858;-59
2022/08/27 00:37:40;;;;;;;13.60;4.20;;;;;;;23.49;41.30;99811.76;117312;1182;22930;-69
2022/08/27 00:40:09;;;;;;;12.10;3.90;;;;;;;23.47;41.14;99808.33;117326;1185;21933;-69
2022/08/27 00:42:36;;;;;;;10.10;3.70;;;;;;;23.44;41.23;99805.00;117384;1185;23458;-69
2022/08/27 00:45:05;;;;;;;10.90;3.50;;;;;;;23.42;41.19;99806.73;117390;1183;23551;-69
2022/08/27 00:47:33;;;;;;;14.50;4.70;;;;;;;23.42;41.13;99803.70;117367;1184;23525;-60
2022/08/27 00:50:03;;;;;;;8.80;3.60;;;;;;;23.39;41.18;99803.21;117327;1188;22323;-69
2022/08/27 00:52:41;;;;;;;9.70;3.00;;;;;;;23.35;41.02;99802.43;117344;1185;23711;-69
2022/08/27 00:55:13;;;;;;;12.80;3.50;;;;;;;23.31;40.94;99798.29;117382;1182;21863;-58
2022/08/27 00:57:41;;;;;;;11.50;3.70;;;;;;;23.27;41.00;99796.55;117338;1188;21905;-69
2022/08/27 01:00:10;;;;;;;8.90;3.80;;;;;;;23.26;41.04;99792.73;117323;1185;21870;-59
2022/08/27 01:02:37;;;;;;;12.40;3.60;;;;;;;23.25;40.93;99789.38;117354;1186;21869;-59
2022/08/27 01:05:08;;;;;;;9.60;3.50;;;;;;;23.25;40.98;99791.02;117409;1186;21976;-67
2022/08/27 01:07:36;;;;;;;11.40;3.80;;;;;;;23.24;40.96;99789.83;117095;1188;21895;-68
2022/08/27 01:10:05;;;;;;;7.70;3.30;;;;;;;23.22;40.92;99793.89;117093;1187;24158;-60
2022/08/27 01:12:33;;;;;;;8.50;3.60;;;;;;;23.19;40.90;99793.88;116989;1184;22650;-60
2022/08/27 01:15:04;;;;;;;9.90;3.20;;;;;;;23.19;41.04;99795.50;117185;1186;21854;-68
2022/08/27 01:17:32;;;;;;;11.40;4.00;;;;;;;23.18;40.97;99800.77;117314;1185;21864;-68
2022/08/27 01:20:02;;;;;;;15.00;3.80;;;;;;;23.18;40.75;99794.48;117341;1186;21866;-59
2022/08/27 01:22:56;;;;;;;11.20;3.70;;;;;;;23.19;40.60;99793.58;117330;1185;21848;-59
2022/08/27 01:25:24;;;;;;;10.10;3.90;;;;;;;23.19;40.53;99796.23;117038;1186;23560;-68
2022/08/27 01:27:52;;;;;;;11.50;4.20;;;;;;;23.18;40.58;99796.31;116938;1189;21864;-60
2022/08/27 01:30:19;;;;;;;15.60;3.40;;;;;;;23.16;40.57;99797.36;117045;1182;23589;-67
2022/08/27 01:32:46;;;;;;;11.00;4.40;;;;;;;23.13;40.63;99799.39;117107;1188;22808;-59
2022/08/27 01:35:14;;;;;;;9.10;4.10;;;;;;;23.09;40.66;99804.49;117330;1186;21898;-59
2022/08/27 01:37:43;;;;;;;10.80;4.10;;;;;;;23.04;40.78;99807.38;117337;1185;22809;-60
2022/08/27 01:40:10;;;;;;;12.30;3.30;;;;;;;22.98;40.69;99810.45;117358;1186;23595;-60
2022/08/27 01:42:44;;;;;;;13.20;4.20;;;;;;;22.97;40.80;99816.11;117340;1186;21881;-60
2022/08/27 01:45:20;;;;;;;13.30;4.00;;;;;;;22.95;40.74;99821.06;117327;1186;22732;-59
2022/08/27 01:47:47;;;;;;;9.70;3.60;;;;;;;22.95;40.59;99819.11;117336;1189;21862;-60
2022/08/27 01:50:18;;;;;;;7.60;3.50;;;;;;;22.96;40.61;99819.58;117297;1186;23554;-67
2022/08/27 01:52:45;;;;;;;10.10;3.70;;;;;;;22.96;40.69;99812.75;117363;1186;22728;-67
2022/08/27 01:55:14;;;;;;;11.90;4.00;;;;;;;22.98;40.54;99813.91;117366;1182;22942;-67
2022/08/27 01:57:42;;;;;;;12.90;4.00;;;;;;;23.05;40.42;99817.70;117339;1185;21848;-60
2022/08/27 02:00:37;;;;;;;8.20;3.30;;;;;;;23.09;40.26;99821.84;117262;1183;22645;-60
2022/08/27 02:03:06;;;;;;;7.90;3.00;;;;;;;23.13;40.25;99824.03;117327;1185;21892;-60
2022/08/27 02:05:33;;;;;;;12.30;3.30;;;;;;;23.12;40.19;99828.22;117304;1185;23640;-60
2022/08/27 02:08:11;;;;;;;7.70;3.10;;;;;;;23.13;40.30;99831.37;117308;1184;21852;-60
2022/08/27 02:10:39;;;;;;;10.10;4.30;;;;;;;23.18;40.38;99842.09;117330;1182;23650;-67
2022/08/27 02:13:07;;;;;;;8.30;3.70;;;;;;;23.23;40.39;99847.51;117394;1183;23646;-67
2022/08/27 02:15:34;;;;;;;9.60;3.00;;;;;;;23.27;40.34;99844.54;117090;1186;22000;-67
2022/08/27 02:18:03;;;;;;;10.00;3.60;;;;;;;23.25;40.48;99842.90;117018;1184;22677;-60
2022/08/27 02:20:30;;;;;;;7.70;3.40;;;;;;;23.23;40.52;99842.13;117000;1186;21883;-67
2022/08/27 02:22:57;;;;;;;9.40;3.40;;;;;;;23.23;40.60;99848.25;116996;1187;22905;-67
2022/08/27 02:25:25;;;;;;;9.80;3.30;;;;;;;23.23;40.54;99851.45;116964;1184;21862;-67
2022/08/27 02:27:52;;;;;;;10.10;3.10;;;;;;;23.25;40.60;99854.40;117010;1182;23604;-67
2022/08/27 02:30:22;;;;;;;11.60;4.20;;;;;;;23.24;40.73;99855.33;117094;1186;21961;-67
2022/08/27 02:32:51;;;;;;;9.10;3.90;;;;;;;23.21;40.73;99855.52;116979;1187;23019;-60
2022/08/27 02:35:20;;;;;;;7.70;3.40;;;;;;;23.19;40.67;99855.47;117212;1182;24298;-60
2022/08/27 02:37:48;;;;;;;8.80;3.50;;;;;;;23.19;40.68;99859.58;117050;1185;23251;-67
2022/08/27 02:40:16;;;;;;;14.20;3.20;;;;;;;23.20;40.88;99857.95;117088;1185;21861;-59
2022/08/27 02:42:44;;;;;;;11.10;3.40;;;;;;;23.19;41.04;99855.13;117008;1182;23445;-60
2022/08/27 02:45:11;;;;;;;10.70;3.10;;;;;;;23.18;40.98;99860.00;117094;1184;23479;-67
2022/08/27 02:47:39;;;;;;;11.10;3.20;;;;;;;23.18;40.88;99854.64;117273;1186;21975;-67
2022/08/27 02:50:07;;;;;;;13.10;3.90;;;;;;;23.24;40.76;99852.66;116993;1184;23656;-60
2022/08/27 02:52:34;;;;;;;11.50;3.60;;;;;;;23.27;40.88;99847.95;117264;1184;23231;-60
2022/08/27 02:55:02;;;;;;;8.00;3.40;;;;;;;23.28;40.88;99845.16;117183;1186;22925;-59
2022/08/27 02:57:30;;;;;;;11.00;3.40;;;;;;;23.26;40.75;99848.16;117297;1186;23726;-60
2022/08/27 03:00:13;;;;;;;11.20;3.60;;;;;;;23.22;40.79;99847.40;116986;1185;21868;-67
2022/08/27 03:02:41;;;;;;;7.90;3.50;;;;;;;23.21;40.66;99847.47;117055;1184;23002;-60
2022/08/27 03:05:08;;;;;;;10.10;3.40;;;;;;;23.25;40.70;99850.98;117217;1185;22998;-67
2022/08/27 03:07:36;;;;;;;11.50;3.70;;;;;;;23.28;40.63;99853.09;117126;1186;22620;-59
2022/08/27 03:10:04;;;;;;;8.20;3.70;;;;;;;23.24;40.80;99849.61;117297;1186;22630;-66
2022/08/27 03:12:33;;;;;;;12.80;3.50;;;;;;;23.24;40.74;99843.34;117122;1187;22954;-60
2022/08/27 03:15:00;;;;;;;10.00;3.80;;;;;;;23.32;40.74;99840.10;117078;1185;21859;-61
2022/08/27 03:20:14;;;;;;;13.20;3.70;;;;;;;23.40;40.59;99842.18;116992;1184;21868;-67
2022/08/27 03:22:41;;;;;;;13.50;3.60;;;;;;;23.39;40.63;99840.11;117257;1184;22699;-66
2022/08/27 03:25:09;;;;;;;9.10;3.60;;;;;;;23.34;40.64;99840.48;117273;1185;22966;-60
2022/08/27 03:27:36;;;;;;;10.00;3.80;;;;;;;23.35;40.49;99836.86;117057;1185;21859;-67
2022/08/27 03:30:10;;;;;;;11.50;4.20;;;;;;;23.34;40.55;99836.19;117096;1182;23099;-67
2022/08/27 03:32:37;;;;;;;9.30;3.40;;;;;;;23.35;40.71;99833.95;117273;1185;23002;-60
2022/08/27 03:35:04;;;;;;;13.40;4.00;;;;;;;23.36;40.48;99834.95;117063;1185;24262;-66
2022/08/27 03:37:31;;;;;;;13.50;4.80;;;;;;;23.37;40.71;99832.70;117294;1186;22909;-60
2022/08/27 03:39:58;;;;;;;14.50;3.60;;;;;;;23.39;40.72;99829.69;117305;1186;21922;-60
2022/08/27 03:42:26;;;;;;;8.50;3.80;;;;;;;23.43;40.59;99830.84;117069;1182;22929;-60
2022/08/27 03:44:54;;;;;;;7.90;4.00;;;;;;;23.45;40.76;99832.63;117077;1187;23559;-67
2022/08/27 03:47:22;;;;;;;9.30;3.90;;;;;;;23.47;40.62;99829.84;117108;1188;21859;-61
2022/08/27 03:49:49;;;;;;;9.00;3.40;;;;;;;23.48;40.65;99825.46;117053;1184;22082;-67
2022/08/27 03:52:16;;;;;;;10.30;3.90;;;;;;;23.49;40.65;99828.44;117028;1187;22739;-67
2022/08/27 03:54:44;;;;;;;8.50;3.80;;;;;;;23.49;40.59;99828.41;117091;1187;23670;-60
2022/08/27 03:57:12;;;;;;;13.70;3.60;;;;;;;23.50;40.50;99828.70;117018;1186;21878;-60
2022/08/27 03:59:39;;;;;;;14.00;4.70;;;;;;;23.50;40.61;99825.29;117059;1187;22027;-67
2022/08/27 04:02:06;;;;;;;8.10;3.80;;;;;;;23.51;40.66;99826.51;117062;1184;23327;-61
2022/08/27 04:04:34;;;;;;;9.30;4.10;;;;;;;23.51;40.65;99826.55;116926;1186;21925;-67
2022/08/27 04:07:01;;;;;;;7.00;3.20;;;;;;;23.50;40.83;99826.55;116998;1187;22710;-67
2022/08/27 04:09:28;;;;;;;9.90;3.80;;;;;;;23.49;40.83;99822.35;117008;1183;22952;-60
2022/08/27 04:11:56;;;;;;;6.60;3.50;;;;;;;23.48;40.99;99824.88;116946;1185;22645;-67
2022/08/27 04:14:23;;;;;;;10.80;3.80;;;;;;;23.48;41.05;99823.89;117010;1184;23550;-61
2022/08/27 04:16:56;;;;;;;8.00;3.40;;;;;;;23.48;41.12;99817.98;117027;1187;22929;-60
2022/08/27 04:19:24;;;;;;;;;;;;;;;23.47;41.28;99820.90;117003;1185;23633;-65
2022/08/27 04:21:59;;;;;;;12.10;3.50;;;;;;;23.43;41.23;99822.10;116973;1189;21857;-66
2022/08/27 04:24:26;;;;;;;7.90;3.90;;;;;;;23.39;41.33;99821.12;117119;1186;21852;-65
2022/08/27 04:26:53;;;;;;;10.50;3.90;;;;;;;23.36;41.58;99818.84;117195;1185;21866;-66
2022/08/27 04:29:21;;;;;;;10.80;4.40;;;;;;;23.35;41.63;99812.86;117008;1187;22949;-60
2022/08/27 04:31:49;;;;;;;10.20;3.90;;;;;;;23.36;41.77;99812.92;117071;1184;22921;-66
2022/08/27 04:34:17;;;;;;;16.00;5.20;;;;;;;23.38;41.90;99809.77;117065;1184;21899;-60
2022/08/27 04:36:44;;;;;;;7.20;4.10;;;;;;;23.39;41.75;99805.39;117091;1184;21858;-60
2022/08/27 04:39:12;;;;;;;10.40;3.70;;;;;;;23.41;42.00;99803.95;117118;1187;21912;-66
2022/08/27 04:41:40;;;;;;;9.00;4.10;;;;;;;23.45;42.06;99799.73;117046;1183;22028;-60
2022/08/27 04:44:09;;;;;;;10.00;4.20;;;;;;;23.50;42.25;99796.33;117177;1185;21859;-61
2022/08/27 04:46:38;;;;;;;12.30;4.30;;;;;;;23.55;42.23;99792.88;117274;1183;23573;-60
2022/08/27 04:49:12;;;;;;;11.70;4.20;;;;;;;23.60;42.18;99790.00;119428;1182;22235;-61
2022/08/27 04:51:41;;;;;;;9.40;4.30;;;;;;;23.69;42.28;99787.21;117393;1185;23453;-60
2022/08/27 04:54:09;;;;;;;7.50;4.30;;;;;;;23.76;42.15;99791.29;119187;1186;21827;-60
2022/08/27 04:56:37;;;;;;;10.20;4.10;;;;;;;23.85;42.03;99790.02;119383;1185;21745;-66
2022/08/27 04:59:05;;;;;;;7.90;4.20;;;;;;;23.95;42.08;99787.52;119217;1184;21800;-61
2022/08/27 05:01:32;;;;;;;11.80;4.10;;;;;;;24.05;41.94;99795.67;117794;1186;23640;-61
2022/08/27 05:04:01;;;;;;;11.00;4.20;;;;;;;24.16;42.01;99805.07;117622;1183;21924;-62
2022/08/27 05:06:29;;;;;;;11.50;4.30;;;;;;;24.27;41.89;99805.66;119526;1184;22057;-62
2022/08/27 05:08:56;;;;;;;13.10;4.60;;;;;;;24.39;41.66;99804.69;117499;1186;22948;-62
2022/08/27 05:11:25;;;;;;;10.40;4.00;;;;;;;24.48;41.69;99805.98;117440;1185;22895;-60
2022/08/27 05:13:52;;;;;;;11.90;4.70;;;;;;;24.55;41.52;99803.59;117314;1182;23576;-60
2022/08/27 05:16:21;;;;;;;10.60;4.40;;;;;;;24.63;41.43;99803.38;117324;1185;23695;-67
2022/08/27 05:18:50;;;;;;;8.80;4.50;;;;;;;24.73;41.50;99803.70;117407;1182;23382;-60
2022/08/27 05:21:26;;;;;;;12.00;4.80;;;;;;;24.81;41.32;99806.10;117460;1186;21858;-61
2022/08/27 05:23:53;;;;;;;9.40;4.60;;;;;;;24.90;41.34;99805.52;117125;1181;23558;-66
2022/08/27 05:26:20;;;;;;;12.60;4.50;;;;;;;25.00;41.20;99804.56;117158;1186;21828;-66
2022/08/27 05:28:48;;;;;;;9.90;5.00;;;;;;;25.08;41.14;99806.04;117261;1182;23588;-60
2022/08/27 05:31:18;;;;;;;12.20;4.60;;;;;;;25.15;41.04;99804.95;117342;1186;21879;-59
2022/08/27 05:33:45;;;;;;;8.80;4.50;;;;;;;25.21;41.07;99803.00;117335;1184;21858;-67
2022/08/27 05:36:21;;;;;;;9.70;4.60;;;;;;;25.27;40.92;99803.80;117340;1185;23579;-59
2022/08/27 05:38:49;;;;;;;10.40;4.10;;;;;;;25.35;40.99;99804.35;117333;1186;21951;-60
2022/08/27 05:41:18;;;;;;;9.60;5.10;;;;;;;25.44;40.99;99798.60;117145;1184;22723;-67
2022/08/27 05:43:45;;;;;;;10.10;4.60;;;;;;;25.54;40.88;99797.95;117413;1186;21882;-67
2022/08/27 05:46:19;;;;;;;10.10;5.40;;;;;;;25.65;40.99;99798.46;117415;1184;21888;-60
2022/08/27 05:48:46;;;;;;;9.90;4.90;;;;;;;25.79;40.87;99796.92;117403;1184;23573;-66
2022/08/27 05:51:16;;;;;;;16.80;5.20;;;;;;;25.91;40.58;99799.86;117388;1186;23554;-60
2022/08/27 05:54:13;;;;;;;9.90;4.60;;;;;;;26.02;40.55;99805.02;117346;1186;21868;-66
2022/08/27 05:56:41;;;;;;;11.70;4.70;;;;;;;26.13;40.49;99803.35;117371;1183;22811;-66
2022/08/27 06:01:55;;;;;;;13.10;4.30;;;;;;;26.44;40.18;99801.64;117359;1184;23446;-60
2022/08/27 06:04:23;;;;;;;9.50;3.90;;;;;;;26.58;40.16;99798.23;117563;1186;22937;-60
2022/08/27 06:06:51;;;;;;;8.20;4.30;;;;;;;26.73;39.95;99797.10;119447;1185;21860;-60
2022/08/27 06:09:20;;;;;;;9.30;3.90;;;;;;;26.95;39.78;99790.61;117649;1186;23450;-60
2022/08/27 06:11:47;;;;;;;13.00;5.10;;;;;;;27.18;39.68;99789.25;118468;1185;21879;-67
2022/08/27 06:14:15;;;;;;;11.70;4.30;;;;;;;27.41;39.32;99791.13;117185;1185;23557;-60
2022/08/27 06:16:43;;;;;;;12.50;4.40;;;;;;;27.56;39.11;99791.39;117235;1186;23567;-60
2022/08/27 06:19:12;;;;;;;10.30;4.30;;;;;;;27.72;39.05;99792.77;118016;1184;22822;-60
2022/08/27 06:21:40;;;;;;;14.80;5.10;;;;;;;27.95;38.94;99793.67;117353;1179;21913;-60
2022/08/27 06:24:07;;;;;;;12.90;4.60;;;;;;;28.15;38.47;99794.02;117307;1183;23608;-67
2022/08/27 06:26:35;;;;;;;10.80;4.60;;;;;;;28.31;38.16;99791.00;117287;1186;23016;-60
2022/08/27 06:29:04;;;;;;;6.50;3.90;;;;;;;28.46;37.94;99791.05;117357;1184;22648;-61
2022/08/27 06:31:31;;;;;;;10.40;4.20;;;;;;;28.54;37.74;99797.11;117373;1185;21949;-67
2022/08/27 06:34:00;;;;;;;9.90;4.20;;;;;;;28.62;37.83;99800.47;117342;1186;22941;-60
2022/08/27 06:36:38;;;;;;;10.40;4.60;;;;;;;28.80;37.77;99804.42;117296;1183;22929;-60
2022/08/27 06:39:05;;;;;;;11.80;4.30;;;;;;;28.99;37.54;99810.85;117314;1185;22928;-60
2022/08/27 06:41:33;;;;;;;8.20;4.20;;;;;;;29.16;37.49;99812.91;117371;1186;22905;-61
2022/08/27 06:44:00;;;;;;;10.30;4.80;;;;;;;29.35;37.05;99818.66;117371;1184;21905;-67
2022/08/27 06:46:28;;;;;;;13.00;4.70;;;;;;;29.49;37.06;99818.15;117381;1185;21937;-66
2022/08/27 06:48:59;;;;;;;8.70;4.40;;;;;;;29.65;36.94;99818.73;117436;1182;22927;-67
2022/08/27 06:51:27;;;;;;;;;;;;;;;29.78;36.90;99818.86;117429;1186;21836;-71
2022/08/27 06:53:55;;;;;;;8.10;4.20;;;;;;;29.92;36.79;99817.27;117167;1186;21963;-68
2022/08/27 06:56:23;;;;;;;9.10;4.40;;;;;;;30.05;36.66;99818.06;117262;1185;22938;-67
2022/08/27 06:58:54;;;;;;;12.00;3.80;;;;;;;30.16;36.47;99816.13;117041;1187;21863;-61
2022/08/27 07:01:24;;;;;;;11.90;4.80;;;;;;;30.24;36.60;99809.13;117253;1184;22952;-62
2022/08/27 07:03:57;;;;;;;14.90;4.80;;;;;;;30.35;36.56;99806.67;117233;1186;22925;-66
2022/08/27 07:06:26;;;;;;;10.10;4.90;;;;;;;30.53;36.21;99804.11;119207;1185;21851;-67
2022/08/27 07:08:55;;;;;;;8.00;4.30;;;;;;;30.67;36.07;99804.23;117197;1184;23453;-67
2022/08/27 07:11:23;;;;;;;11.00;4.70;;;;;;;30.82;35.71;99804.36;117265;1185;23509;-59
2022/08/27 07:13:50;;;;;;;9.00;4.90;;;;;;;30.96;35.31;99807.16;117336;1184;22919;-60
2022/08/27 07:16:19;;;;;;;8.60;4.10;;;;;;;31.13;35.47;99805.69;117203;1182;22724;-61
2022/08/27 07:18:50;;;;;;;9.90;5.10;;;;;;;31.38;35.32;99806.27;117713;1186;22927;-68
2022/08/27 07:21:21;;;;;;;11.30;4.60;;;;;;;31.65;35.09;99806.39;117367;1186;22931;-67
2022/08/27 07:23:50;;;;;;;9.30;4.50;;;;;;;31.85;34.71;99806.23;117308;1183;21914;-69
2022/08/27 07:26:18;;;;;;;10.70;4.70;;;;;;;32.04;34.49;99810.27;117336;1185;22941;-67
2022/08/27 07:28:45;;;;;;;7.90;3.70;;;;;;;32.20;34.22;99813.76;117263;1185;22178;-63
2022/08/27 07:31:16;;;;;;;8.70;3.90;;;;;;;32.35;33.85;99816.66;117224;1185;21855;-67
2022/08/27 07:33:45;;;;;;;12.10;4.30;;;;;;;32.47;33.52;99815.43;117103;1185;21978;-68
2022/08/27 07:36:21;;;;;;;9.70;4.00;;;;;;;32.62;33.31;99814.29;117251;1186;21856;-68
2022/08/27 07:38:51;;;;;;;12.40;4.50;;;;;;;32.75;33.09;99817.86;117097;1184;21861;-67
2022/08/27 07:41:29;;;;;;;10.00;4.40;;;;;;;32.84;32.87;99817.41;117275;1184;22932;-62
2022/08/27 07:46:54;;;;;;;11.70;4.30;;;;;;;32.87;30.73;99810.90;117325;1184;22919;-68
2022/08/27 07:49:22;;;;;;;5.80;3.90;;;;;;;32.91;31.82;99808.02;117326;1185;22726;-64
2022/08/27 07:51:50;;;;;;;8.20;3.80;;;;;;;33.00;31.43;99805.98;117332;1184;22996;-63
2022/08/27 07:54:20;;;;;;;8.90;4.30;;;;;;;33.05;31.19;99804.19;117279;1185;21941;-62
2022/08/27 07:56:47;;;;;;;10.30;4.50;;;;;;;33.02;30.99;99802.33;117117;1185;22825;-68
2022/08/27 07:59:22;;;;;;;11.80;3.90;;;;;;;33.09;31.26;99806.27;117255;1183;21866;-61
2022/08/27 08:01:51;;;;;;;9.20;4.40;;;;;;;33.21;31.32;99809.35;117307;1185;21895;-61
2022/08/27 08:04:21;;;;;;;10.20;3.70;;;;;;;33.42;31.61;99811.29;117410;1185;21854;-62
2022/08/27 08:06:49;;;;;;;10.00;3.50;;;;;;;33.73;31.52;99809.86;117144;1188;22345;-68
2022/08/27 08:09:17;;;;;;;9.80;4.10;;;;;;;33.98;31.03;99809.06;117197;1186;21859;-70
2022/08/27 08:11:45;;;;;;;8.10;4.00;;;;;;;34.15;30.86;99805.50;117111;1185;21915;-69
2022/08/27 08:14:12;;;;;;;7.30;4.30;;;;;;;34.23;30.72;99819.23;117231;1186;21856;-69
2022/08/27 08:16:40;;;;;;;6.50;4.30;;;;;;;34.31;30.78;99818.58;117188;1184;21855;-68
2022/08/27 08:19:08;;;;;;;12.00;5.10;;;;;;;34.39;30.41;99816.86;117232;1188;21899;-62
2022/08/27 08:21:35;;;;;;;7.10;4.00;;;;;;;34.49;30.70;99819.03;117122;1188;21865;-69
2022/08/27 08:24:02;;;;;;;8.40;3.80;;;;;;;34.64;30.23;99818.59;117378;1183;21855;-68
2022/08/27 08:26:30;;;;;;;12.60;5.10;;;;;;;34.69;30.14;99817.90;117231;1182;22632;-69
2022/08/27 08:28:57;;;;;;;11.10;4.50;;;;;;;34.81;30.41;99822.84;117319;1189;21871;-69
2022/08/27 08:31:26;;;;;;;13.90;4.70;;;;;;;34.98;30.36;99815.63;117242;1185;21864;-68
2022/08/27 08:33:53;;;;;;;11.80;5.60;;;;;;;35.26;30.78;99816.38;117234;1185;21991;-68
2022/08/27 08:36:21;;;;;;;7.90;4.10;;;;;;;35.47;30.15;99822.29;119379;1185;21687;-67
2022/08/27 08:38:49;;;;;;;8.20;4.70;;;;;;;35.60;29.80;99825.13;119231;1184;21806;-67
2022/08/27 08:41:37;;;;;;;15.20;5.40;;;;;;;35.59;29.58;99825.59;117830;1182;22737;-61
2022/08/27 08:44:41;;;;;;;11.90;4.00;;;;;;;35.49;29.86;99826.30;117244;1185;21856;-67
2022/08/27 08:47:10;;;;;;;6.70;3.50;;;;;;;35.37;29.73;99828.11;117095;1187;21845;-63
2022/08/27 08:49:56;;;;;;;10.20;4.20;;;;;;;35.25;29.92;99823.20;117185;1186;21859;-61
2022/08/27 08:52:55;;;;;;;9.80;4.60;;;;;;;35.29;29.81;99823.99;117436;1185;21901;-70
2022/08/27 08:55:50;;;;;;;11.70;4.20;;;;;;;35.37;29.84;99826.73;119163;1181;21793;-69
2022/08/27 08:58:45;;;;;;;5.70;3.80;;;;;;;35.47;29.61;99821.36;119333;1185;21792;-69
2022/08/27 09:01:18;;;;;;;11.10;4.30;;;;;;;35.57;29.66;99820.46;119358;1182;22297;-63
2022/08/27 09:04:02;;;;;;;8.20;4.30;;;;;;;35.77;29.54;99814.46;119375;1183;22271;-68
2022/08/27 09:07:09;;;;;;;8.70;4.10;;;;;;;35.98;29.27;99819.27;119226;1185;21845;-63
2022/08/27 09:09:48;;;;;;;9.60;4.20;;;;;;;36.23;29.44;99810.36;118817;1189;21799;-69
2022/08/27 09:12:17;;;;;;;12.10;4.60;;;;;;;36.59;29.15;99814.15;119256;1186;21809;-69
2022/08/27 09:14:53;;;;;;;14.00;4.80;;;;;;;36.94;28.96;99810.58;118619;1187;21864;-69
2022/08/27 09:17:20;;;;;;;9.80;4.40;;;;;;;37.28;28.80;99814.75;119014;1184;23638;-69
2022/08/27 09:19:48;;;;;;;8.50;4.70;;;;;;;37.50;28.43;99821.33;119376;1182;21811;-70
2022/08/27 09:22:17;;;;;;;10.60;3.40;;;;;;;37.68;28.57;99817.90;119387;1185;21779;-63
2022/08/27 09:25:06;;;;;;;10.10;4.10;;;;;;;37.93;28.00;99812.00;119329;1185;21857;-70
2022/08/27 09:27:35;;;;;;;7.90;4.00;;;;;;;38.01;28.00;99813.29;117105;1188;21871;-62
2022/08/27 09:30:11;;;;;;;12.40;3.00;;;;;;;38.06;28.01;99818.41;117352;1185;23599;-63
2022/08/27 09:32:38;;;;;;;8.20;3.80;;;;;;;38.21;27.73;99822.60;117138;1182;23487;-68
2022/08/27 09:35:07;;;;;;;15.60;3.90;;;;;;;38.36;27.29;99819.29;117131;1187;22971;-63
2022/08/27 09:37:43;;;;;;;13.10;4.10;;;;;;;38.53;27.32;99818.33;117196;1181;23638;-68
2022/08/27 09:40:19;;;;;;;10.10;3.60;;;;;;;38.72;27.00;99824.89;117208;1189;22910;-62
2022/08/27 09:42:53;;;;;;;7.30;3.30;;;;;;;38.77;26.55;99826.52;117351;1183;22925;-68
2022/08/27 09:45:25;;;;;;;11.60;3.80;;;;;;;38.83;26.53;99826.84;117321;1185;21859;-68
2022/08/27 09:47:55;;;;;;;10.60;3.50;;;;;;;38.96;26.65;99826.94;117320;1186;23714;-62
2022/08/27 09:50:23;;;;;;;10.60;3.40;;;;;;;39.12;26.38;99824.95;117358;1185;21858;-68
2022/08/27 09:52:56;;;;;;;7.20;4.00;;;;;;;39.13;25.84;99822.14;117365;1182;21876;-68
2022/08/27 09:55:34;;;;;;;6.50;3.40;;;;;;;39.14;26.02;99824.05;117377;1182;22813;-68
2022/08/27 09:58:05;;;;;;;11.70;3.30;;;;;;;39.28;25.82;99829.64;117414;1186;22616;-69
2022/08/27 10:00:39;;;;;;;10.90;3.70;;;;;;;39.50;25.69;99832.73;117362;1186;21901;-62
2022/08/27 10:03:07;;;;;;;7.80;3.20;;;;;;;39.71;25.57;99832.08;117352;1185;21851;-63
2022/08/27 10:05:43;;;;;;;8.00;3.40;;;;;;;39.76;25.13;99828.20;117402;1186;21894;-69
2022/08/27 10:08:27;;;;;;;6.90;3.90;;;;;;;39.62;23.99;99829.32;117473;1182;22725;-69
2022/08/27 10:11:03;;;;;;;12.50;4.00;;;;;;;39.40;22.99;99830.64;117359;1185;21859;-64
2022/08/27 10:13:36;;;;;;;10.40;3.90;;;;;;;39.38;24.30;99826.77;117113;1182;23555;-64
2022/08/27 10:16:22;;;;;;;9.20;3.80;;;;;;;39.62;24.84;99828.45;117305;1186;21857;-65
2022/08/27 10:19:10;;;;;;;12.00;3.50;;;;;;;39.84;24.72;99830.05;117069;1186;23044;-70
2022/08/27 10:21:44;;;;;;;10.10;3.10;;;;;;;40.08;24.56;99831.23;117071;1188;23394;-69
2022/08/27 10:24:31;;;;;;;12.20;3.30;;;;;;;40.27;24.55;99833.67;117265;1183;22857;-69
2022/08/27 10:27:17;;;;;;;7.80;3.10;;;;;;;40.38;24.34;99827.86;117259;1187;21867;-63
2022/08/27 10:30:00;;;;;;;18.20;4.10;;;;;;;40.41;24.38;99826.78;117335;1182;21919;-70
2022/08/27 10:32:42;;;;;;;7.90;3.40;;;;;;;40.53;24.17;99829.11;117157;1185;21990;-71
2022/08/27 10:35:50;;;;;;;15.20;3.90;;;;;;;40.64;24.09;99830.10;117173;1183;22098;-61
2022/08/27 10:38:43;;;;;;;13.90;3.40;;;;;;;40.77;23.58;99830.38;117281;1189;21863;-67
2022/08/27 10:41:30;;;;;;;10.60;3.10;;;;;;;40.90;23.65;99834.44;117102;1186;22928;-68
2022/08/27 10:44:16;;;;;;;8.70;3.40;;;;;;;41.14;23.50;99833.73;117311;1185;23016;-62
2022/08/27 10:46:57;;;;;;;17.10;4.30;;;;;;;41.43;23.58;99838.02;117295;1185;21915;-62
2022/08/27 10:49:36;;;;;;;37.00;6.40;;;;;;;41.65;23.16;99835.95;117343;1186;21846;-62
2022/08/27 10:52:28;;;;;;;27.40;5.90;;;;;;;41.78;23.01;99833.11;117329;1183;22938;-68
2022/08/27 10:55:03;;;;;;;14.50;4.00;;;;;;;41.90;22.53;99835.55;117234;1183;22938;-69
2022/08/27 10:57:42;;;;;;;9.00;3.60;;;;;;;41.92;22.51;99836.83;117101;1188;21852;-66
2022/08/27 11:00:35;;;;;;;11.30;3.60;;;;;;;41.87;22.57;99832.28;117291;1185;22011;-60
2022/08/27 11:03:09;;;;;;;14.20;3.60;;;;;;;41.86;22.54;99833.27;117325;1185;22825;-61
2022/08/27 11:05:44;;;;;;;15.10;3.80;;;;;;;41.66;22.19;99837.63;117275;1186;21859;-61
2022/08/27 11:08:25;;;;;;;14.40;3.50;;;;;;;41.47;22.42;99840.52;117284;1182;22797;-61
2022/08/27 11:11:05;;;;;;;10.50;3.70;;;;;;;41.45;22.45;99833.55;117300;1182;21847;-68
2022/08/27 11:13:52;;;;;;;14.60;4.00;;;;;;;41.46;22.54;99828.20;117242;1183;23013;-68
2022/08/27 11:16:32;;;;;;;10.50;3.60;;;;;;;41.65;22.55;99826.98;117222;1185;23582;-68
2022/08/27 11:19:03;;;;;;;13.10;3.40;;;;;;;41.77;22.29;99827.30;119135;1185;21797;-63
2022/08/27 11:21:33;;;;;;;14.40;4.10;;;;;;;41.79;22.07;99829.22;119238;1183;21787;-64
2022/08/27 11:24:23;;;;;;;11.30;3.80;;;;;;;41.80;21.72;99830.73;117718;1185;22533;-64
2022/08/27 11:26:52;;;;;;;8.40;3.40;;;;;;;41.74;21.77;99832.63;118206;1186;21858;-64
2022/08/27 11:29:28;;;;;;;16.50;4.40;;;;;;;41.63;21.54;99826.19;117223;1185;22176;-71
2022/08/27 11:32:10;;;;;;;10.50;3.00;;;;;;;41.50;21.47;99828.33;117458;1187;24388;-64
2022/08/27 11:34:52;;;;;;;12.30;4.60;;;;;;;41.44;21.48;99830.11;119291;1185;21828;-71
2022/08/27 11:37:38;;;;;;;11.80;3.40;;;;;;;41.36;21.29;99825.69;119248;1186;21765;-65
2022/08/27 11:40:08;;;;;;;13.00;3.40;;;;;;;41.15;21.00;99828.90;119465;1185;21770;-65
2022/08/27 11:42:41;;;;;;;10.60;3.20;;;;;;;41.02;21.03;99823.04;119243;1186;21812;-71
2022/08/27 11:45:16;;;;;;;13.40;4.10;;;;;;;40.98;21.53;99823.20;118239;1187;21850;-65
2022/08/27 11:47:54;;;;;;;10.60;3.80;;;;;;;40.98;21.23;99826.83;117299;1189;21871;-65
2022/08/27 11:50:22;;;;;;;15.00;3.90;;;;;;;41.01;21.43;99828.18;117283;1183;21871;-64